sensor_id;sensor_type;location;lat;lon;timestamp;temperature;humidity
76613;DHT22;65507;48.454;-2.058;2023-07-02T00:00:08;14.90;68.90
76613;DHT22;65507;48.454;-2.058;2023-07-02T00:02:35;15.70;69.10
76613;DHT22;65507;48.454;-2.058;2023-07-02T00:05:00;15.70;69.10
76613;DHT22;65507;48.454;-2.058;2023-07-02T00:07:26;15.70;69.10
76613;DHT22;65507;48.454;-2.058;2023-07-02T00:09:51;15.60;69.10
76613;DHT22;65507;48.454;-2.058;2023-07-02T00:12:17;15.70;69.20
76613;DHT22;65507;48.454;-2.058;2023-07-02T00:14:43;15.70;69.30
76613;DHT22;65507;48.454;-2.058;2023-07-02T00:17:08;15.70;69.00
76613;DHT22;65507;48.454;-2.058;2023-07-02T00:19:38;15.70;69.20
76613;DHT22;65507;48.454;-2.058;2023-07-02T00:22:10;15.70;69.00
76613;DHT22;65507;48.454;-2.058;2023-07-02T00:24:35;15.60;69.00
76613;DHT22;65507;48.454;-2.058;2023-07-02T00:27:01;15.60;69.00
76613;DHT22;65507;48.454;-2.058;2023-07-02T00:29:27;15.60;69.40
76613;DHT22;65507;48.454;-2.058;2023-07-02T00:31:52;15.60;69.40
76613;DHT22;65507;48.454;-2.058;2023-07-02T00:34:18;15.60;69.40
76613;DHT22;65507;48.454;-2.058;2023-07-02T00:36:44;15.60;69.40
76613;DHT22;65507;48.454;-2.058;2023-07-02T00:39:09;15.50;69.40
76613;DHT22;65507;48.454;-2.058;2023-07-02T00:41:37;15.50;69.50
76613;DHT22;65507;48.454;-2.058;2023-07-02T00:44:02;15.50;69.60
76613;DHT22;65507;48.454;-2.058;2023-07-02T00:46:28;15.50;69.50
76613;DHT22;65507;48.454;-2.058;2023-07-02T00:48:54;15.50;69.80
76613;DHT22;65507;48.454;-2.058;2023-07-02T00:51:24;15.40;69.70
76613;DHT22;65507;48.454;-2.058;2023-07-02T00:53:51;15.40;69.70
76613;DHT22;65507;48.454;-2.058;2023-07-02T00:56:17;15.40;69.70
76613;DHT22;65507;48.454;-2.058;2023-07-02T00:58:44;15.40;69.70
76613;DHT22;65507;48.454;-2.058;2023-07-02T01:01:15;15.40;69.70
76613;DHT22;65507;48.454;-2.058;2023-07-02T01:03:51;15.40;69.80
76613;DHT22;65507;48.454;-2.058;2023-07-02T01:06:23;15.30;69.70
76613;DHT22;65507;48.454;-2.058;2023-07-02T01:08:55;15.30;69.70
76613;DHT22;65507;48.454;-2.058;2023-07-02T01:11:22;15.30;69.70
76613;DHT22;65507;48.454;-2.058;2023-07-02T01:13:49;15.30;69.80
76613;DHT22;65507;48.454;-2.058;2023-07-02T01:16:15;15.30;69.80
76613;DHT22;65507;48.454;-2.058;2023-07-02T01:18:41;15.30;69.80
76613;DHT22;65507;48.454;-2.058;2023-07-02T01:21:07;15.20;69.70
76613;DHT22;65507;48.454;-2.058;2023-07-02T01:23:33;15.20;69.80
76613;DHT22;65507;48.454;-2.058;2023-07-02T01:25:59;15.20;69.80
76613;DHT22;65507;48.454;-2.058;2023-07-02T01:28:27;15.20;70.00
76613;DHT22;65507;48.454;-2.058;2023-07-02T01:30:59;17.40;71.10
76613;DHT22;65507;48.454;-2.058;2023-07-02T01:33:25;15.20;70.00
76613;DHT22;65507;48.454;-2.058;2023-07-02T01:35:50;15.20;70.00
76613;DHT22;65507;48.454;-2.058;2023-07-02T01:38:16;15.20;70.10
76613;DHT22;65507;48.454;-2.058;2023-07-02T01:40:41;15.10;70.20
76613;DHT22;65507;48.454;-2.058;2023-07-02T01:43:07;15.10;70.20
76613;DHT22;65507;48.454;-2.058;2023-07-02T01:45:32;15.10;70.10
76613;DHT22;65507;48.454;-2.058;2023-07-02T01:47:58;15.10;70.20
76613;DHT22;65507;48.454;-2.058;2023-07-02T01:50:23;15.10;70.20
76613;DHT22;65507;48.454;-2.058;2023-07-02T01:52:49;15.10;70.30
76613;DHT22;65507;48.454;-2.058;2023-07-02T01:55:14;15.10;70.30
76613;DHT22;65507;48.454;-2.058;2023-07-02T01:57:42;15.10;70.30
76613;DHT22;65507;48.454;-2.058;2023-07-02T02:00:07;15.10;70.20
76613;DHT22;65507;48.454;-2.058;2023-07-02T02:02:34;15.10;70.10
76613;DHT22;65507;48.454;-2.058;2023-07-02T02:05:00;15.20;70.10
76613;DHT22;65507;48.454;-2.058;2023-07-02T02:07:26;15.20;70.00
76613;DHT22;65507;48.454;-2.058;2023-07-02T02:09:51;15.30;69.80
76613;DHT22;65507;48.454;-2.058;2023-07-02T02:12:17;15.30;69.70
76613;DHT22;65507;48.454;-2.058;2023-07-02T02:14:42;15.30;69.70
76613;DHT22;65507;48.454;-2.058;2023-07-02T02:17:08;15.40;69.80
76613;DHT22;65507;48.454;-2.058;2023-07-02T02:19:33;15.40;69.80
76613;DHT22;65507;48.454;-2.058;2023-07-02T02:21:59;15.40;69.90
76613;DHT22;65507;48.454;-2.058;2023-07-02T02:24:24;15.40;69.80
76613;DHT22;65507;48.454;-2.058;2023-07-02T02:26:50;15.40;69.80
76613;DHT22;65507;48.454;-2.058;2023-07-02T02:29:15;15.30;69.90
76613;DHT22;65507;48.454;-2.058;2023-07-02T02:31:42;15.30;70.20
76613;DHT22;65507;48.454;-2.058;2023-07-02T02:34:07;15.30;70.20
76613;DHT22;65507;48.454;-2.058;2023-07-02T02:36:33;15.30;70.40
76613;DHT22;65507;48.454;-2.058;2023-07-02T02:38:59;15.30;70.40
76613;DHT22;65507;48.454;-2.058;2023-07-02T02:41:24;15.20;70.40
76613;DHT22;65507;48.454;-2.058;2023-07-02T02:43:50;15.20;70.40
76613;DHT22;65507;48.454;-2.058;2023-07-02T02:46:21;15.20;70.40
76613;DHT22;65507;48.454;-2.058;2023-07-02T02:48:48;15.20;70.40
76613;DHT22;65507;48.454;-2.058;2023-07-02T02:51:13;15.10;70.50
76613;DHT22;65507;48.454;-2.058;2023-07-02T02:53:39;15.10;70.60
76613;DHT22;65507;48.454;-2.058;2023-07-02T02:56:04;15.10;70.70
76613;DHT22;65507;48.454;-2.058;2023-07-02T02:58:30;15.00;70.70
76613;DHT22;65507;48.454;-2.058;2023-07-02T03:00:55;15.00;70.70
76613;DHT22;65507;48.454;-2.058;2023-07-02T03:03:21;15.00;70.80
76613;DHT22;65507;48.454;-2.058;2023-07-02T03:05:47;15.00;70.70
76613;DHT22;65507;48.454;-2.058;2023-07-02T03:08:14;15.00;70.80
76613;DHT22;65507;48.454;-2.058;2023-07-02T03:10:39;15.00;70.70
76613;DHT22;65507;48.454;-2.058;2023-07-02T03:13:05;15.00;71.00
76613;DHT22;65507;48.454;-2.058;2023-07-02T03:15:30;15.00;70.90
76613;DHT22;65507;48.454;-2.058;2023-07-02T03:17:56;15.00;71.00
76613;DHT22;65507;48.454;-2.058;2023-07-02T03:20:21;15.00;71.00
76613;DHT22;65507;48.454;-2.058;2023-07-02T03:22:47;14.90;70.90
76613;DHT22;65507;48.454;-2.058;2023-07-02T03:25:12;14.90;70.90
76613;DHT22;65507;48.454;-2.058;2023-07-02T03:27:38;14.90;70.90
76613;DHT22;65507;48.454;-2.058;2023-07-02T03:30:04;14.90;71.00
76613;DHT22;65507;48.454;-2.058;2023-07-02T03:32:30;14.90;70.90
76613;DHT22;65507;48.454;-2.058;2023-07-02T03:34:55;14.90;71.10
76613;DHT22;65507;48.454;-2.058;2023-07-02T03:37:21;14.90;71.00
76613;DHT22;65507;48.454;-2.058;2023-07-02T03:39:46;15.00;71.00
76613;DHT22;65507;48.454;-2.058;2023-07-02T03:42:12;15.00;70.90
76613;DHT22;65507;48.454;-2.058;2023-07-02T03:44:37;15.00;70.90
76613;DHT22;65507;48.454;-2.058;2023-07-02T03:47:03;15.00;70.90
76613;DHT22;65507;48.454;-2.058;2023-07-02T03:49:28;15.00;70.80
76613;DHT22;65507;48.454;-2.058;2023-07-02T03:51:54;15.00;70.80
76613;DHT22;65507;48.454;-2.058;2023-07-02T03:54:20;15.10;70.70
76613;DHT22;65507;48.454;-2.058;2023-07-02T03:56:45;15.00;70.60
76613;DHT22;65507;48.454;-2.058;2023-07-02T03:59:11;15.10;70.70
76613;DHT22;65507;48.454;-2.058;2023-07-02T04:01:36;15.00;70.70
76613;DHT22;65507;48.454;-2.058;2023-07-02T04:04:02;15.00;70.70
76613;DHT22;65507;48.454;-2.058;2023-07-02T04:06:27;15.00;70.80
76613;DHT22;65507;48.454;-2.058;2023-07-02T04:08:53;15.00;70.90
76613;DHT22;65507;48.454;-2.058;2023-07-02T04:11:18;15.00;71.00
76613;DHT22;65507;48.454;-2.058;2023-07-02T04:13:44;14.90;71.00
76613;DHT22;65507;48.454;-2.058;2023-07-02T04:16:09;15.00;71.20
76613;DHT22;65507;48.454;-2.058;2023-07-02T04:18:35;14.90;71.20
76613;DHT22;65507;48.454;-2.058;2023-07-02T04:21:01;14.90;71.20
76613;DHT22;65507;48.454;-2.058;2023-07-02T04:23:27;14.90;71.10
76613;DHT22;65507;48.454;-2.058;2023-07-02T04:25:52;14.90;71.20
76613;DHT22;65507;48.454;-2.058;2023-07-02T04:28:18;14.90;71.30
76613;DHT22;65507;48.454;-2.058;2023-07-02T04:30:44;14.90;71.30
76613;DHT22;65507;48.454;-2.058;2023-07-02T04:33:09;14.90;71.30
76613;DHT22;65507;48.454;-2.058;2023-07-02T04:35:39;14.90;71.40
76613;DHT22;65507;48.454;-2.058;2023-07-02T04:38:05;14.90;71.40
76613;DHT22;65507;48.454;-2.058;2023-07-02T04:40:31;14.90;71.30
76613;DHT22;65507;48.454;-2.058;2023-07-02T04:42:57;14.90;71.20
76613;DHT22;65507;48.454;-2.058;2023-07-02T04:45:23;14.90;71.20
76613;DHT22;65507;48.454;-2.058;2023-07-02T04:47:50;14.90;71.10
76613;DHT22;65507;48.454;-2.058;2023-07-02T04:50:16;14.90;71.10
76613;DHT22;65507;48.454;-2.058;2023-07-02T04:52:41;14.90;71.10
76613;DHT22;65507;48.454;-2.058;2023-07-02T04:55:07;14.90;71.10
76613;DHT22;65507;48.454;-2.058;2023-07-02T04:57:33;14.90;71.20
76613;DHT22;65507;48.454;-2.058;2023-07-02T04:59:58;14.90;72.10
76613;DHT22;65507;48.454;-2.058;2023-07-02T05:02:24;14.90;71.20
76613;DHT22;65507;48.454;-2.058;2023-07-02T05:04:49;14.90;71.20
76613;DHT22;65507;48.454;-2.058;2023-07-02T05:07:21;14.90;71.20
76613;DHT22;65507;48.454;-2.058;2023-07-02T05:09:47;14.90;71.20
76613;DHT22;65507;48.454;-2.058;2023-07-02T05:12:13;14.90;71.30
76613;DHT22;65507;48.454;-2.058;2023-07-02T05:14:39;14.90;71.20
76613;DHT22;65507;48.454;-2.058;2023-07-02T05:17:04;15.00;71.20
76613;DHT22;65507;48.454;-2.058;2023-07-02T05:19:30;15.00;71.30
76613;DHT22;65507;48.454;-2.058;2023-07-02T05:21:56;15.00;71.20
76613;DHT22;65507;48.454;-2.058;2023-07-02T05:24:21;15.00;71.10
76613;DHT22;65507;48.454;-2.058;2023-07-02T05:26:47;15.10;71.00
76613;DHT22;65507;48.454;-2.058;2023-07-02T05:29:12;15.10;71.00
76613;DHT22;65507;48.454;-2.058;2023-07-02T05:31:39;15.10;71.00
76613;DHT22;65507;48.454;-2.058;2023-07-02T05:34:05;15.10;71.00
76613;DHT22;65507;48.454;-2.058;2023-07-02T05:36:30;15.10;71.10
76613;DHT22;65507;48.454;-2.058;2023-07-02T05:38:56;15.10;71.00
76613;DHT22;65507;48.454;-2.058;2023-07-02T05:41:21;15.20;70.90
76613;DHT22;65507;48.454;-2.058;2023-07-02T05:43:47;15.30;70.80
76613;DHT22;65507;48.454;-2.058;2023-07-02T05:46:13;15.30;70.70
76613;DHT22;65507;48.454;-2.058;2023-07-02T05:48:39;15.40;70.60
76613;DHT22;65507;48.454;-2.058;2023-07-02T05:51:05;15.50;70.40
76613;DHT22;65507;48.454;-2.058;2023-07-02T05:53:31;15.60;70.40
76613;DHT22;65507;48.454;-2.058;2023-07-02T05:55:56;15.70;70.40
76613;DHT22;65507;48.454;-2.058;2023-07-02T05:58:22;15.70;70.10
76613;DHT22;65507;48.454;-2.058;2023-07-02T06:00:47;15.80;70.10
76613;DHT22;65507;48.454;-2.058;2023-07-02T06:03:15;15.90;70.00
76613;DHT22;65507;48.454;-2.058;2023-07-02T06:05:47;16.00;69.70
76613;DHT22;65507;48.454;-2.058;2023-07-02T06:08:14;16.10;69.60
76613;DHT22;65507;48.454;-2.058;2023-07-02T06:10:40;16.20;69.50
76613;DHT22;65507;48.454;-2.058;2023-07-02T06:13:05;16.30;69.40
76613;DHT22;65507;48.454;-2.058;2023-07-02T06:15:31;16.30;69.50
76613;DHT22;65507;48.454;-2.058;2023-07-02T06:17:56;13.80;68.00
76613;DHT22;65507;48.454;-2.058;2023-07-02T06:20:22;16.50;69.30
76613;DHT22;65507;48.454;-2.058;2023-07-02T06:22:47;16.50;69.30
76613;DHT22;65507;48.454;-2.058;2023-07-02T06:25:13;16.50;69.30
76613;DHT22;65507;48.454;-2.058;2023-07-02T06:27:38;16.60;69.30
76613;DHT22;65507;48.454;-2.058;2023-07-02T06:30:04;16.60;69.20
76613;DHT22;65507;48.454;-2.058;2023-07-02T06:32:30;16.70;69.20
76613;DHT22;65507;48.454;-2.058;2023-07-02T06:34:56;16.80;69.00
76613;DHT22;65507;48.454;-2.058;2023-07-02T06:37:21;16.90;69.90
76613;DHT22;65507;48.454;-2.058;2023-07-02T06:39:47;17.00;68.80
76613;DHT22;65507;48.454;-2.058;2023-07-02T06:42:12;17.00;68.70
76613;DHT22;65507;48.454;-2.058;2023-07-02T06:44:38;17.10;68.80
76613;DHT22;65507;48.454;-2.058;2023-07-02T06:47:03;17.20;68.80
76613;DHT22;65507;48.454;-2.058;2023-07-02T06:49:29;17.20;68.80
76613;DHT22;65507;48.454;-2.058;2023-07-02T06:51:54;17.30;68.60
76613;DHT22;65507;48.454;-2.058;2023-07-02T06:54:20;17.40;68.50
76613;DHT22;65507;48.454;-2.058;2023-07-02T06:56:45;17.50;68.40
76613;DHT22;65507;48.454;-2.058;2023-07-02T06:59:11;17.60;68.40
76613;DHT22;65507;48.454;-2.058;2023-07-02T07:01:36;17.60;68.40
76613;DHT22;65507;48.454;-2.058;2023-07-02T07:04:02;17.60;68.50
76613;DHT22;65507;48.454;-2.058;2023-07-02T07:06:28;17.70;68.40
76613;DHT22;65507;48.454;-2.058;2023-07-02T07:08:54;17.70;68.50
76613;DHT22;65507;48.454;-2.058;2023-07-02T07:11:19;17.70;68.40
76613;DHT22;65507;48.454;-2.058;2023-07-02T07:13:45;17.80;68.50
76613;DHT22;65507;48.454;-2.058;2023-07-02T07:16:11;17.80;68.40
76613;DHT22;65507;48.454;-2.058;2023-07-02T07:18:37;17.80;68.20
76613;DHT22;65507;48.454;-2.058;2023-07-02T07:21:02;17.90;68.20
76613;DHT22;65507;48.454;-2.058;2023-07-02T07:23:28;18.00;68.00
76613;DHT22;65507;48.454;-2.058;2023-07-02T07:25:56;18.00;67.90
76613;DHT22;65507;48.454;-2.058;2023-07-02T07:28:22;17.30;67.40
76613;DHT22;65507;48.454;-2.058;2023-07-02T07:30:47;18.10;67.90
76613;DHT22;65507;48.454;-2.058;2023-07-02T07:33:13;18.10;68.00
76613;DHT22;65507;48.454;-2.058;2023-07-02T07:35:39;18.20;68.00
76613;DHT22;65507;48.454;-2.058;2023-07-02T07:38:04;18.20;68.00
76613;DHT22;65507;48.454;-2.058;2023-07-02T07:40:30;18.20;68.00
76613;DHT22;65507;48.454;-2.058;2023-07-02T07:42:55;18.20;68.00
76613;DHT22;65507;48.454;-2.058;2023-07-02T07:45:21;18.20;68.00
76613;DHT22;65507;48.454;-2.058;2023-07-02T07:47:46;18.30;67.80
76613;DHT22;65507;48.454;-2.058;2023-07-02T07:50:12;18.40;67.60
76613;DHT22;65507;48.454;-2.058;2023-07-02T07:52:38;18.60;67.40
76613;DHT22;65507;48.454;-2.058;2023-07-02T07:55:04;18.70;67.20
76613;DHT22;65507;48.454;-2.058;2023-07-02T07:57:29;18.70;67.30
76613;DHT22;65507;48.454;-2.058;2023-07-02T07:59:55;18.70;67.60
76613;DHT22;65507;48.454;-2.058;2023-07-02T08:02:20;18.70;67.50
76613;DHT22;65507;48.454;-2.058;2023-07-02T08:04:48;18.60;67.60
76613;DHT22;65507;48.454;-2.058;2023-07-02T08:07:14;18.60;67.70
76613;DHT22;65507;48.454;-2.058;2023-07-02T08:09:39;18.60;68.00
76613;DHT22;65507;48.454;-2.058;2023-07-02T08:12:05;18.60;68.00
76613;DHT22;65507;48.454;-2.058;2023-07-02T08:14:30;18.50;68.00
76613;DHT22;65507;48.454;-2.058;2023-07-02T08:16:56;18.60;68.00
76613;DHT22;65507;48.454;-2.058;2023-07-02T08:19:22;18.70;67.80
76613;DHT22;65507;48.454;-2.058;2023-07-02T08:21:47;18.80;67.40
76613;DHT22;65507;48.454;-2.058;2023-07-02T08:24:13;19.00;67.10
76613;DHT22;65507;48.454;-2.058;2023-07-02T08:26:38;19.00;66.80
76613;DHT22;65507;48.454;-2.058;2023-07-02T08:29:04;19.10;66.80
76613;DHT22;65507;48.454;-2.058;2023-07-02T08:31:30;19.10;66.50
76613;DHT22;65507;48.454;-2.058;2023-07-02T08:33:55;19.30;66.30
76613;DHT22;65507;48.454;-2.058;2023-07-02T08:36:21;19.30;66.00
76613;DHT22;65507;48.454;-2.058;2023-07-02T08:38:46;19.40;65.80
76613;DHT22;65507;48.454;-2.058;2023-07-02T08:41:12;19.30;65.90
76613;DHT22;65507;48.454;-2.058;2023-07-02T08:43:37;19.20;66.20
76613;DHT22;65507;48.454;-2.058;2023-07-02T08:46:03;19.10;66.20
76613;DHT22;65507;48.454;-2.058;2023-07-02T08:48:29;19.00;66.50
76613;DHT22;65507;48.454;-2.058;2023-07-02T08:50:55;19.00;66.50
76613;DHT22;65507;48.454;-2.058;2023-07-02T08:53:20;19.10;66.20
76613;DHT22;65507;48.454;-2.058;2023-07-02T08:55:50;19.20;65.90
76613;DHT22;65507;48.454;-2.058;2023-07-02T08:58:16;19.30;65.50
76613;DHT22;65507;48.454;-2.058;2023-07-02T09:01:03;19.40;65.20
76613;DHT22;65507;48.454;-2.058;2023-07-02T09:03:27;19.50;64.90
76613;DHT22;65507;48.454;-2.058;2023-07-02T09:05:52;18.60;63.90
76613;DHT22;65507;48.454;-2.058;2023-07-02T09:08:24;19.90;64.30
76613;DHT22;65507;48.454;-2.058;2023-07-02T09:10:50;20.10;64.00
76613;DHT22;65507;48.454;-2.058;2023-07-02T09:13:15;20.20;63.70
76613;DHT22;65507;48.454;-2.058;2023-07-02T09:15:42;20.30;63.40
76613;DHT22;65507;48.454;-2.058;2023-07-02T09:18:17;20.30;63.40
76613;DHT22;65507;48.454;-2.058;2023-07-02T09:20:43;20.30;63.50
76613;DHT22;65507;48.454;-2.058;2023-07-02T09:23:08;20.20;63.70
76613;DHT22;65507;48.454;-2.058;2023-07-02T09:25:36;20.20;63.90
76613;DHT22;65507;48.454;-2.058;2023-07-02T09:28:02;20.30;63.50
76613;DHT22;65507;48.454;-2.058;2023-07-02T09:30:27;20.50;63.10
76613;DHT22;65507;48.454;-2.058;2023-07-02T09:32:53;20.50;63.00
76613;DHT22;65507;48.454;-2.058;2023-07-02T09:35:19;20.60;63.00
76613;DHT22;65507;48.454;-2.058;2023-07-02T09:37:45;20.60;63.00
76613;DHT22;65507;48.454;-2.058;2023-07-02T09:40:11;20.50;63.10
76613;DHT22;65507;48.454;-2.058;2023-07-02T09:42:38;20.50;63.10
76613;DHT22;65507;48.454;-2.058;2023-07-02T09:45:04;20.60;63.20
76613;DHT22;65507;48.454;-2.058;2023-07-02T09:47:32;20.60;63.10
76613;DHT22;65507;48.454;-2.058;2023-07-02T09:50:03;20.50;63.10
76613;DHT22;65507;48.454;-2.058;2023-07-02T09:52:31;20.50;63.10
76613;DHT22;65507;48.454;-2.058;2023-07-02T09:54:58;20.40;63.20
76613;DHT22;65507;48.454;-2.058;2023-07-02T09:57:24;20.30;63.60
76613;DHT22;65507;48.454;-2.058;2023-07-02T09:59:49;20.20;63.70
76613;DHT22;65507;48.454;-2.058;2023-07-02T10:02:15;20.20;63.80
76613;DHT22;65507;48.454;-2.058;2023-07-02T10:07:06;20.30;63.70
76613;DHT22;65507;48.454;-2.058;2023-07-02T10:09:39;20.40;63.50
76613;DHT22;65507;48.454;-2.058;2023-07-02T10:12:17;20.30;63.40
76613;DHT22;65507;48.454;-2.058;2023-07-02T10:14:43;20.30;63.50
76613;DHT22;65507;48.454;-2.058;2023-07-02T10:17:09;20.30;63.50
76613;DHT22;65507;48.454;-2.058;2023-07-02T10:19:35;20.40;63.50
76613;DHT22;65507;48.454;-2.058;2023-07-02T10:22:01;20.40;63.40
76613;DHT22;65507;48.454;-2.058;2023-07-02T10:24:27;20.40;63.30
76613;DHT22;65507;48.454;-2.058;2023-07-02T10:26:57;20.50;63.40
76613;DHT22;65507;48.454;-2.058;2023-07-02T10:29:23;20.50;63.10
76613;DHT22;65507;48.454;-2.058;2023-07-02T10:31:53;20.60;63.00
76613;DHT22;65507;48.454;-2.058;2023-07-02T10:34:31;20.70;62.70
76613;DHT22;65507;48.454;-2.058;2023-07-02T10:36:57;20.70;62.40
76613;DHT22;65507;48.454;-2.058;2023-07-02T10:39:23;20.80;62.20
76613;DHT22;65507;48.454;-2.058;2023-07-02T10:41:49;20.90;61.90
76613;DHT22;65507;48.454;-2.058;2023-07-02T10:44:15;21.00;61.80
76613;DHT22;65507;48.454;-2.058;2023-07-02T10:46:45;21.20;61.30
76613;DHT22;65507;48.454;-2.058;2023-07-02T10:49:10;21.30;61.00
76613;DHT22;65507;48.454;-2.058;2023-07-02T10:51:37;21.30;61.00
76613;DHT22;65507;48.454;-2.058;2023-07-02T10:54:03;22.50;61.70
76613;DHT22;65507;48.454;-2.058;2023-07-02T10:56:29;21.30;61.10
76613;DHT22;65507;48.454;-2.058;2023-07-02T10:58:55;21.30;61.20
76613;DHT22;65507;48.454;-2.058;2023-07-02T11:01:21;21.30;61.30
76613;DHT22;65507;48.454;-2.058;2023-07-02T11:03:54;21.40;61.30
76613;DHT22;65507;48.454;-2.058;2023-07-02T11:06:20;21.50;61.20
76613;DHT22;65507;48.454;-2.058;2023-07-02T11:08:46;21.50;61.20
76613;DHT22;65507;48.454;-2.058;2023-07-02T11:11:11;21.60;61.30
76613;DHT22;65507;48.454;-2.058;2023-07-02T11:13:46;21.50;61.30
76613;DHT22;65507;48.454;-2.058;2023-07-02T11:16:25;21.40;61.10
76613;DHT22;65507;48.454;-2.058;2023-07-02T11:19:09;21.40;61.50
76613;DHT22;65507;48.454;-2.058;2023-07-02T11:21:35;21.30;61.60
76613;DHT22;65507;48.454;-2.058;2023-07-02T11:24:07;21.30;61.70
76613;DHT22;65507;48.454;-2.058;2023-07-02T11:26:40;21.30;61.80
76613;DHT22;65507;48.454;-2.058;2023-07-02T11:29:12;21.10;62.00
76613;DHT22;65507;48.454;-2.058;2023-07-02T11:31:38;21.10;62.10
76613;DHT22;65507;48.454;-2.058;2023-07-02T11:34:13;21.20;62.10
76613;DHT22;65507;48.454;-2.058;2023-07-02T11:36:38;21.00;62.10
76613;DHT22;65507;48.454;-2.058;2023-07-02T11:39:04;20.80;62.40
76613;DHT22;65507;48.454;-2.058;2023-07-02T11:41:37;20.80;62.70
76613;DHT22;65507;48.454;-2.058;2023-07-02T11:44:03;20.70;62.80
76613;DHT22;65507;48.454;-2.058;2023-07-02T11:46:28;20.60;62.90
76613;DHT22;65507;48.454;-2.058;2023-07-02T11:48:54;20.50;62.90
76613;DHT22;65507;48.454;-2.058;2023-07-02T11:51:19;20.50;63.00
76613;DHT22;65507;48.454;-2.058;2023-07-02T11:53:45;20.40;63.10
76613;DHT22;65507;48.454;-2.058;2023-07-02T11:56:10;20.40;63.20
76613;DHT22;65507;48.454;-2.058;2023-07-02T11:58:38;20.50;63.10
76613;DHT22;65507;48.454;-2.058;2023-07-02T12:01:04;20.50;62.80
76613;DHT22;65507;48.454;-2.058;2023-07-02T12:03:29;20.50;62.80
76613;DHT22;65507;48.454;-2.058;2023-07-02T12:05:55;20.50;62.80
76613;DHT22;65507;48.454;-2.058;2023-07-02T12:08:21;20.40;62.80
76613;DHT22;65507;48.454;-2.058;2023-07-02T12:10:47;20.40;62.70
76613;DHT22;65507;48.454;-2.058;2023-07-02T12:13:13;20.40;62.80
76613;DHT22;65507;48.454;-2.058;2023-07-02T12:15:42;20.50;62.70
76613;DHT22;65507;48.454;-2.058;2023-07-02T12:18:08;21.60;62.70
76613;DHT22;65507;48.454;-2.058;2023-07-02T12:20:33;20.90;61.60
76613;DHT22;65507;48.454;-2.058;2023-07-02T12:22:59;21.10;61.20
76613;DHT22;65507;48.454;-2.058;2023-07-02T12:25:25;21.30;61.00
76613;DHT22;65507;48.454;-2.058;2023-07-02T12:27:50;21.40;60.70
76613;DHT22;65507;48.454;-2.058;2023-07-02T12:30:16;21.50;60.30
76613;DHT22;65507;48.454;-2.058;2023-07-02T12:32:42;21.50;60.50
76613;DHT22;65507;48.454;-2.058;2023-07-02T12:35:08;21.60;60.60
76613;DHT22;65507;48.454;-2.058;2023-07-02T12:37:34;21.50;60.70
76613;DHT22;65507;48.454;-2.058;2023-07-02T12:39:59;21.50;61.00
76613;DHT22;65507;48.454;-2.058;2023-07-02T12:42:25;21.40;61.10
76613;DHT22;65507;48.454;-2.058;2023-07-02T12:44:51;21.30;61.20
76613;DHT22;65507;48.454;-2.058;2023-07-02T12:47:16;21.30;61.10
76613;DHT22;65507;48.454;-2.058;2023-07-02T12:49:42;21.30;61.10
76613;DHT22;65507;48.454;-2.058;2023-07-02T12:52:07;21.30;61.10
76613;DHT22;65507;48.454;-2.058;2023-07-02T12:54:33;21.40;61.20
76613;DHT22;65507;48.454;-2.058;2023-07-02T12:56:58;21.50;61.00
76613;DHT22;65507;48.454;-2.058;2023-07-02T12:59:24;21.70;60.80
76613;DHT22;65507;48.454;-2.058;2023-07-02T13:01:49;21.70;60.60
76613;DHT22;65507;48.454;-2.058;2023-07-02T13:04:15;21.70;60.50
76613;DHT22;65507;48.454;-2.058;2023-07-02T13:06:40;21.60;60.50
76613;DHT22;65507;48.454;-2.058;2023-07-02T13:09:07;21.60;60.80
76613;DHT22;65507;48.454;-2.058;2023-07-02T13:11:32;21.50;61.10
76613;DHT22;65507;48.454;-2.058;2023-07-02T13:13:58;21.40;61.10
76613;DHT22;65507;48.454;-2.058;2023-07-02T13:16:23;21.30;61.30
76613;DHT22;65507;48.454;-2.058;2023-07-02T13:18:49;21.20;61.50
76613;DHT22;65507;48.454;-2.058;2023-07-02T13:21:15;21.20;61.60
76613;DHT22;65507;48.454;-2.058;2023-07-02T13:23:40;21.10;61.50
76613;DHT22;65507;48.454;-2.058;2023-07-02T13:26:06;21.10;61.80
76613;DHT22;65507;48.454;-2.058;2023-07-02T13:28:31;21.00;61.80
76613;DHT22;65507;48.454;-2.058;2023-07-02T13:30:57;20.90;61.70
76613;DHT22;65507;48.454;-2.058;2023-07-02T13:33:22;20.90;61.90
76613;DHT22;65507;48.454;-2.058;2023-07-02T13:35:50;20.90;62.00
76613;DHT22;65507;48.454;-2.058;2023-07-02T13:38:15;20.90;62.00
76613;DHT22;65507;48.454;-2.058;2023-07-02T13:40:41;20.80;62.10
76613;DHT22;65507;48.454;-2.058;2023-07-02T13:43:07;20.70;62.10
76613;DHT22;65507;48.454;-2.058;2023-07-02T13:45:32;20.70;62.30
76613;DHT22;65507;48.454;-2.058;2023-07-02T13:47:58;20.70;62.20
76613;DHT22;65507;48.454;-2.058;2023-07-02T13:50:23;20.80;62.20
76613;DHT22;65507;48.454;-2.058;2023-07-02T13:52:49;20.80;62.20
76613;DHT22;65507;48.454;-2.058;2023-07-02T13:55:15;20.80;62.10
76613;DHT22;65507;48.454;-2.058;2023-07-02T13:57:41;20.90;62.00
76613;DHT22;65507;48.454;-2.058;2023-07-02T14:00:06;20.90;61.90
76613;DHT22;65507;48.454;-2.058;2023-07-02T14:02:32;20.90;61.80
76613;DHT22;65507;48.454;-2.058;2023-07-02T14:04:58;20.90;61.80
76613;DHT22;65507;48.454;-2.058;2023-07-02T14:07:24;21.10;61.60
76613;DHT22;65507;48.454;-2.058;2023-07-02T14:09:50;21.10;61.40
76613;DHT22;65507;48.454;-2.058;2023-07-02T14:12:15;21.20;61.40
76613;DHT22;65507;48.454;-2.058;2023-07-02T14:14:41;21.30;61.10
76613;DHT22;65507;48.454;-2.058;2023-07-02T14:17:07;21.40;61.10
76613;DHT22;65507;48.454;-2.058;2023-07-02T14:19:32;21.60;60.80
76613;DHT22;65507;48.454;-2.058;2023-07-02T14:21:58;21.60;60.70
76613;DHT22;65507;48.454;-2.058;2023-07-02T14:24:24;21.60;60.70
76613;DHT22;65507;48.454;-2.058;2023-07-02T14:26:49;21.70;60.60
76613;DHT22;65507;48.454;-2.058;2023-07-02T14:29:15;21.80;60.50
76613;DHT22;65507;48.454;-2.058;2023-07-02T14:31:40;21.80;60.60
76613;DHT22;65507;48.454;-2.058;2023-07-02T14:34:06;21.70;60.80
76613;DHT22;65507;48.454;-2.058;2023-07-02T14:36:31;21.70;61.00
76613;DHT22;65507;48.454;-2.058;2023-07-02T14:38:57;21.60;61.00
76613;DHT22;65507;48.454;-2.058;2023-07-02T14:41:22;21.70;61.20
76613;DHT22;65507;48.454;-2.058;2023-07-02T14:43:48;21.50;61.20
76613;DHT22;65507;48.454;-2.058;2023-07-02T14:46:13;21.50;61.50
76613;DHT22;65507;48.454;-2.058;2023-07-02T14:48:39;21.40;61.60
76613;DHT22;65507;48.454;-2.058;2023-07-02T14:51:06;21.40;61.70
76613;DHT22;65507;48.454;-2.058;2023-07-02T14:53:32;21.30;61.80
76613;DHT22;65507;48.454;-2.058;2023-07-02T14:55:59;21.30;61.80
76613;DHT22;65507;48.454;-2.058;2023-07-02T14:58:25;21.40;61.80
76613;DHT22;65507;48.454;-2.058;2023-07-02T15:00:52;21.50;61.50
76613;DHT22;65507;48.454;-2.058;2023-07-02T15:03:19;21.60;61.20
76613;DHT22;65507;48.454;-2.058;2023-07-02T15:05:45;21.70;61.10
76613;DHT22;65507;48.454;-2.058;2023-07-02T15:08:12;21.80;61.00
76613;DHT22;65507;48.454;-2.058;2023-07-02T15:10:38;21.90;60.70